createdAt,value
2023-04-18T00:01:29.466Z,101799.72
2023-04-18T00:03:31.061Z,101792.94
2023-04-18T00:05:32.730Z,101796.69
2023-04-18T00:07:34.447Z,101788.78
2023-04-18T00:09:35.931Z,101800.69
2023-04-18T00:11:37.469Z,101787.94
2023-04-18T00:13:39.149Z,101787.94
2023-04-18T00:15:40.556Z,101795.44
2023-04-18T00:17:42.016Z,101794.38
2023-04-18T00:19:43.629Z,101768.56
2023-04-18T00:21:45.270Z,101790.59
2023-04-18T00:23:46.820Z,101794.38
2023-04-18T00:25:48.785Z,101788.69
2023-04-18T00:27:50.168Z,101787.00
2023-04-18T00:29:51.687Z,101789.44
2023-04-18T00:31:53.450Z,101796.41
2023-04-18T00:33:54.855Z,101783.19
2023-04-18T00:35:56.256Z,101790.41
2023-04-18T00:37:58.072Z,101772.78
2023-04-18T00:39:59.486Z,101793.91
2023-04-18T00:42:01.922Z,101772.19
2023-04-18T00:44:03.389Z,101790.53
2023-04-18T00:46:04.918Z,101791.00
2023-04-18T00:48:06.785Z,101781.00
2023-04-18T00:50:09.668Z,101790.28
2023-04-18T00:52:12.294Z,101784.03
2023-04-18T00:54:14.463Z,101786.91
2023-04-18T00:56:16.557Z,101786.91
2023-04-18T00:58:18.014Z,101785.31
2023-04-18T01:00:19.490Z,101792.47
2023-04-18T01:02:21.135Z,101768.69
2023-04-18T01:04:22.805Z,101788.00
2023-04-18T01:06:24.539Z,101791.25
2023-04-18T01:08:26.109Z,101787.50
2023-04-18T01:10:28.671Z,101789.56
2023-04-18T01:12:30.438Z,101783.66
2023-04-18T01:14:31.946Z,101801.97
2023-04-18T01:16:34.156Z,101794.38
2023-04-18T01:18:35.619Z,101804.63
2023-04-18T01:20:44.185Z,101786.06
2023-04-18T01:22:45.594Z,101799.56
2023-04-18T01:24:47.052Z,101782.44
2023-04-18T01:26:48.544Z,101777.63
2023-04-18T01:28:49.965Z,101777.03
2023-04-18T01:30:51.495Z,101787.50
2023-04-18T01:32:53.146Z,101798.94
2023-04-18T01:34:54.599Z,101794.50
2023-04-18T01:36:56.018Z,101792.44
2023-04-18T01:38:58.127Z,101794.00
2023-04-18T01:40:59.549Z,101781.25
2023-04-18T01:43:01.019Z,101787.97
2023-04-18T01:45:02.581Z,101794.97
2023-04-18T01:47:04.007Z,101796.78
2023-04-18T01:49:06.080Z,101788.00
2023-04-18T01:51:07.574Z,101794.97
2023-04-18T01:53:08.969Z,101775.22
2023-04-18T01:55:10.619Z,101800.91
2023-04-18T01:57:12.022Z,101798.34
2023-04-18T01:59:13.423Z,101798.72
2023-04-18T02:01:15.127Z,101789.91
2023-04-18T02:03:16.769Z,101807.16
2023-04-18T02:05:18.323Z,101793.78
2023-04-18T02:07:19.915Z,101786.16
2023-04-18T02:09:21.391Z,101782.69
2023-04-18T02:11:22.780Z,101789.31
2023-04-18T02:13:24.491Z,101795.34
2023-04-18T02:15:25.964Z,101805.72
2023-04-18T02:17:28.526Z,101792.91
2023-04-18T02:19:30.436Z,101797.03
2023-04-18T02:21:31.966Z,101787.00
2023-04-18T02:23:33.395Z,101798.63
2023-04-18T02:25:34.845Z,101797.25
2023-04-18T02:27:36.421Z,101793.88
2023-04-18T02:29:37.837Z,101786.75
2023-04-18T02:31:41.018Z,101788.47
2023-04-18T02:33:43.159Z,101785.34
2023-04-18T02:35:44.558Z,101788.72
2023-04-18T02:37:46.090Z,101788.22
2023-04-18T02:39:47.496Z,101762.78
2023-04-18T02:41:48.907Z,101758.22
2023-04-18T02:43:50.482Z,101771.25
2023-04-18T02:45:52.090Z,101777.41
2023-04-18T02:47:56.202Z,101783.75
2023-04-18T02:49:58.035Z,101763.63
2023-04-18T02:51:59.615Z,101779.78
2023-04-18T02:54:01.024Z,101775.81
2023-04-18T02:56:02.653Z,101785.94
2023-04-18T02:58:04.175Z,101783.53
2023-04-18T03:00:06.329Z,101784.72
2023-04-18T03:02:08.096Z,101764.94
2023-04-18T03:04:09.704Z,101785.44
2023-04-18T03:06:11.153Z,101769.06
2023-04-18T03:08:12.657Z,101791.00
2023-04-18T03:10:14.157Z,101788.22
2023-04-18T03:12:15.554Z,101793.63
2023-04-18T03:14:17.035Z,101784.34
2023-04-18T03:16:18.621Z,101784.97
2023-04-18T03:18:20.110Z,101773.28
2023-04-18T03:20:21.601Z,101788.81
2023-04-18T03:22:23.001Z,101786.91
2023-04-18T03:24:24.381Z,101783.28
2023-04-18T03:26:26.314Z,101760.03
2023-04-18T03:28:27.817Z,101783.03
2023-04-18T03:30:29.278Z,101786.16
2023-04-18T03:32:30.797Z,101777.75
2023-04-18T03:34:32.289Z,101780.50
2023-04-18T03:36:33.798Z,101787.00
2023-04-18T03:38:35.244Z,101784.75
2023-04-18T03:40:36.727Z,101783.66
2023-04-18T03:42:38.141Z,101778.00
2023-04-18T03:44:39.638Z,101792.31
2023-04-18T03:46:41.363Z,101784.59
2023-04-18T03:48:42.879Z,101796.44
2023-04-18T03:50:44.373Z,101783.41
2023-04-18T03:52:45.862Z,101783.16
2023-04-18T03:54:47.289Z,101784.38
2023-04-18T03:56:48.780Z,101794.13
2023-04-18T03:58:50.177Z,101772.63
2023-04-18T04:00:51.657Z,101782.91
2023-04-18T04:02:53.207Z,101776.63
2023-04-18T04:04:54.796Z,101798.25
2023-04-18T04:06:56.722Z,101794.28
2023-04-18T04:08:58.213Z,101787.28
2023-04-18T04:10:59.719Z,101796.19
2023-04-18T04:13:01.140Z,101796.19
2023-04-18T04:15:02.732Z,101790.16
2023-04-18T04:17:04.446Z,101794.88
2023-04-18T04:19:05.855Z,101804.03
2023-04-18T04:21:07.265Z,101801.38
2023-04-18T04:23:08.676Z,101812.22
2023-04-18T04:25:10.114Z,101798.72
2023-04-18T04:27:11.518Z,101808.72
2023-04-18T04:29:13.211Z,101788.00
2023-04-18T04:31:14.782Z,101811.88
2023-04-18T04:33:20.527Z,101817.28
2023-04-18T04:35:22.086Z,101797.50
2023-04-18T04:37:23.502Z,101816.94
2023-04-18T04:39:25.065Z,101800.78
2023-04-18T04:41:26.533Z,101812.69
2023-04-18T04:43:27.950Z,101815.97
2023-04-18T04:45:29.534Z,101817.16
2023-04-18T04:47:31.191Z,101818.75
2023-04-18T04:49:32.677Z,101825.38
2023-04-18T04:51:34.164Z,101827.75
2023-04-18T04:53:35.797Z,101829.69
2023-04-18T04:55:37.289Z,101817.63
2023-04-18T04:57:38.888Z,101828.72
2023-04-18T04:59:40.346Z,101844.66
2023-04-18T05:01:41.781Z,101838.59
2023-04-18T05:03:43.476Z,101845.59
2023-04-18T05:05:46.155Z,101842.13
2023-04-18T05:07:47.587Z,101844.19
2023-04-18T05:09:49.087Z,101838.53
2023-04-18T05:11:50.492Z,101846.00
2023-04-18T05:13:51.916Z,101840.81
2023-04-18T05:15:53.517Z,101799.44
2023-04-18T05:17:55.052Z,101833.69
2023-04-18T05:19:56.533Z,101841.47
2023-04-18T05:21:58.179Z,101846.31
2023-04-18T05:23:59.840Z,101852.00
2023-04-18T05:26:01.261Z,101840.63
2023-04-18T05:28:02.746Z,101845.44
2023-04-18T05:30:04.574Z,101808.09
2023-04-18T05:32:06.243Z,101840.03
2023-04-18T05:34:07.855Z,101848.09
2023-04-18T05:36:09.283Z,101845.59
2023-04-18T05:38:10.720Z,101817.06
2023-04-18T05:40:12.896Z,101851.53
2023-04-18T05:42:14.437Z,101817.38
2023-04-18T05:44:15.858Z,101826.06
2023-04-18T05:46:17.471Z,101838.16
2023-04-18T05:48:19.098Z,101846.22
2023-04-18T05:50:20.544Z,101859.09
2023-04-18T05:52:22.161Z,101859.19
2023-04-18T05:54:24.029Z,101839.59
2023-04-18T05:56:25.506Z,101815.09
2023-04-18T05:58:27.106Z,101856.69
2023-04-18T06:00:29.082Z,101856.16
2023-04-18T06:02:30.552Z,101856.78
2023-04-18T06:04:32.328Z,101855.56
2023-04-18T06:06:35.156Z,101859.66
2023-04-18T06:08:40.689Z,101858.16
2023-04-18T06:10:42.327Z,101849.06
2023-04-18T06:12:43.927Z,101844.63
2023-04-18T06:14:45.374Z,101853.91
2023-04-18T06:16:47.053Z,101840.56
2023-04-18T06:18:48.573Z,101841.03
2023-04-18T06:20:50.017Z,101855.44
2023-04-18T06:22:51.511Z,101849.84
2023-04-18T06:24:53.112Z,101857.31
2023-04-18T06:26:54.775Z,101856.38
2023-04-18T06:28:56.380Z,101858.94
2023-04-18T06:30:58.089Z,101860.53
2023-04-18T06:32:59.859Z,101846.78
2023-04-18T06:35:01.374Z,101852.72
2023-04-18T06:37:02.858Z,101861.84
2023-04-18T06:39:04.288Z,101821.16
2023-04-18T06:41:05.899Z,101859.91
2023-04-18T06:43:07.626Z,101863.50
2023-04-18T06:45:09.874Z,101860.50
2023-04-18T06:47:11.633Z,101855.91
2023-04-18T06:49:13.185Z,101868.63
2023-04-18T06:51:14.579Z,101864.16
2023-04-18T06:53:16.124Z,101862.72
2023-04-18T06:55:17.799Z,101872.44
2023-04-18T06:57:19.272Z,101853.88
2023-04-18T06:59:20.935Z,101831.88
2023-04-18T07:01:22.570Z,101866.16
2023-04-18T07:03:24.231Z,101871.81
2023-04-18T07:05:25.836Z,101874.25
2023-04-18T07:07:27.480Z,101866.81
2023-04-18T07:09:28.929Z,101861.50
2023-04-18T07:11:30.431Z,101857.97
2023-04-18T07:13:32.057Z,101859.84
2023-04-18T07:15:36.505Z,101854.25
2023-04-18T07:17:38.033Z,101866.88
2023-04-18T07:19:40.933Z,101872.69
2023-04-18T07:21:42.428Z,101855.59
2023-04-18T07:23:44.137Z,101866.09
2023-04-18T07:25:45.652Z,101874.78
2023-04-18T07:27:47.049Z,101865.53
2023-04-18T07:29:48.561Z,101870.88
2023-04-18T07:31:51.122Z,101865.28
2023-04-18T07:33:52.544Z,101853.78
2023-04-18T07:35:54.047Z,101873.53
2023-04-18T07:37:55.711Z,101875.03
2023-04-18T07:39:57.151Z,101878.28
2023-04-18T07:41:58.605Z,101881.44
2023-04-18T07:44:01.381Z,101859.47
2023-04-18T07:46:02.822Z,101879.97
2023-04-18T07:48:05.373Z,101874.09
2023-04-18T07:50:08.103Z,101875.44
2023-04-18T07:52:09.552Z,101883.56
2023-04-18T07:54:11.266Z,101880.88
2023-04-18T07:56:13.160Z,101885.38
2023-04-18T07:58:14.567Z,101886.06
2023-04-18T08:00:17.577Z,101877.41
2023-04-18T08:02:19.808Z,101867.56
2023-04-18T08:04:21.529Z,101879.44
2023-04-18T08:06:23.052Z,101882.63
2023-04-18T08:08:24.473Z,101871.50
2023-04-18T08:10:25.863Z,101881.97
2023-04-18T08:12:27.466Z,101864.81
2023-04-18T08:14:29.226Z,101881.66
2023-04-18T08:16:30.717Z,101875.25
2023-04-18T08:18:32.268Z,101880.03
2023-04-18T08:20:35.524Z,101862.38
2023-04-18T08:22:46.825Z,101880.06
2023-04-18T08:25:04.888Z,101875.38
2023-04-18T08:27:07.637Z,101881.06
2023-04-18T08:29:09.090Z,101879.63
2023-04-18T08:31:14.881Z,101861.81
2023-04-18T08:33:16.511Z,101880.00
2023-04-18T08:35:17.978Z,101863.44
2023-04-18T08:37:20.029Z,101879.78
2023-04-18T08:39:22.695Z,101875.53
2023-04-18T08:41:26.503Z,101870.44
2023-04-18T08:43:28.018Z,101863.38
2023-04-18T08:45:29.588Z,101873.94
2023-04-18T08:47:31.387Z,101868.81
2023-04-18T08:49:32.978Z,101875.22
2023-04-18T08:51:34.828Z,101853.66
2023-04-18T08:53:36.218Z,101878.72
2023-04-18T08:55:37.864Z,101877.63
2023-04-18T08:57:39.359Z,101871.72
2023-04-18T08:59:40.850Z,101877.97
2023-04-18T09:01:53.245Z,101873.72
2023-04-18T09:03:54.748Z,101884.41
2023-04-18T09:06:16.690Z,101830.34
2023-04-18T09:08:24.321Z,101870.88
2023-04-18T09:10:31.090Z,101875.53
2023-04-18T09:12:33.234Z,101874.03
2023-04-18T09:14:35.450Z,101876.28
2023-04-18T09:16:46.361Z,101872.44
2023-04-18T09:19:10.894Z,101881.09
2023-04-18T09:21:19.112Z,101866.38
2023-04-18T09:23:24.265Z,101876.97
2023-04-18T09:25:27.251Z,101872.56
2023-04-18T09:27:34.603Z,101871.69
2023-04-18T09:29:48.187Z,101873.22
2023-04-18T09:32:00.458Z,101859.22
2023-04-18T09:34:02.069Z,101856.16
2023-04-18T09:36:18.230Z,101875.75
2023-04-18T09:38:19.946Z,101855.13
2023-04-18T09:40:21.783Z,101860.97
2023-04-18T09:42:23.189Z,101874.78
2023-04-18T09:44:24.632Z,101879.00
2023-04-18T09:46:27.325Z,101871.09
2023-04-18T09:48:28.894Z,101851.19
2023-04-18T09:50:32.126Z,101863.75
2023-04-18T09:52:35.414Z,101870.63
2023-04-18T09:54:38.893Z,101879.38
2023-04-18T09:56:44.173Z,101872.25
2023-04-18T09:58:47.334Z,101853.25
2023-04-18T10:00:53.764Z,101864.44
2023-04-18T10:03:08.662Z,101870.06
2023-04-18T10:05:10.852Z,101867.09
2023-04-18T10:07:13.439Z,101859.97
2023-04-18T10:09:15.393Z,101862.66
2023-04-18T10:11:19.226Z,101868.69
2023-04-18T10:13:22.664Z,101843.84
2023-04-18T10:15:26.579Z,101854.66
2023-04-18T10:17:29.676Z,101852.03
2023-04-18T10:19:31.824Z,101854.47
2023-04-18T10:21:34.220Z,101860.00
2023-04-18T10:23:37.954Z,101868.53
2023-04-18T10:25:39.322Z,101860.19
2023-04-18T10:27:49.549Z,101851.84
2023-04-18T10:29:53.985Z,101848.53
2023-04-18T10:31:55.492Z,101851.38
2023-04-18T10:34:05.157Z,101838.41
2023-04-18T10:36:10.628Z,101847.03
2023-04-18T10:38:17.902Z,101836.25
2023-04-18T10:40:33.444Z,101846.59
2023-04-18T10:42:46.838Z,101842.56
2023-04-18T10:45:20.745Z,101844.91
2023-04-18T10:47:22.274Z,101835.34
2023-04-18T10:49:30.265Z,101833.50
2023-04-18T10:51:33.667Z,101832.84
2023-04-18T10:53:35.060Z,101830.81
2023-04-18T10:55:36.651Z,101841.25
2023-04-18T10:57:46.238Z,101838.25
2023-04-18T10:59:52.166Z,101830.94
2023-04-18T11:01:56.681Z,101838.13
2023-04-18T11:03:58.864Z,101841.00
2023-04-18T11:06:03.808Z,101807.09
2023-04-18T11:08:05.806Z,101841.47
2023-04-18T11:10:08.968Z,101832.94
2023-04-18T11:12:11.319Z,101837.66
2023-04-18T11:14:13.211Z,101836.59
2023-04-18T11:16:26.591Z,101823.28
2023-04-18T11:18:39.952Z,101835.06
2023-04-18T11:20:49.423Z,101828.88
2023-04-18T11:22:52.110Z,101821.66
2023-04-18T11:25:00.825Z,101826.41
2023-04-18T11:27:04.111Z,101817.88
2023-04-18T11:29:06.335Z,101828.19
2023-04-18T11:31:07.962Z,101805.09
2023-04-18T11:33:10.717Z,101825.34
2023-04-18T11:35:14.158Z,101818.63
2023-04-18T11:37:15.639Z,101817.53
2023-04-18T11:39:17.664Z,101815.34
2023-04-18T11:41:19.244Z,101814.31
2023-04-18T11:43:25.024Z,101809.84
2023-04-18T11:45:26.430Z,101815.31
2023-04-18T11:47:29.834Z,101815.97
2023-04-18T11:49:32.544Z,101812.22
2023-04-18T11:51:35.236Z,101809.19
2023-04-18T11:53:38.615Z,101801.84
2023-04-18T11:55:40.188Z,101806.84
2023-04-18T11:57:41.634Z,101801.84
2023-04-18T11:59:48.815Z,101804.47
2023-04-18T12:02:14.843Z,101778.44
2023-04-18T12:04:17.567Z,101795.75
2023-04-18T12:06:19.739Z,101798.63
2023-04-18T12:08:21.490Z,101787.84
2023-04-18T12:10:28.789Z,101784.78
2023-04-18T12:12:30.699Z,101787.50
2023-04-18T12:14:35.264Z,101789.13
2023-04-18T12:16:36.696Z,101786.13
2023-04-18T12:18:38.217Z,101784.13
2023-04-18T12:20:42.053Z,101768.88
2023-04-18T12:22:48.313Z,101777.75
2023-04-18T12:25:14.288Z,101782.31
2023-04-18T12:27:15.769Z,101791.22
2023-04-18T12:29:17.203Z,101763.66
2023-04-18T12:31:18.620Z,101778.28
2023-04-18T12:33:20.101Z,101767.38
2023-04-18T12:35:22.723Z,101777.44
2023-04-18T12:37:24.127Z,101760.84
2023-04-18T12:39:25.735Z,101759.19
2023-04-18T12:41:27.123Z,101759.81
2023-04-18T12:43:28.771Z,101760.63
2023-04-18T12:45:30.305Z,101764.66
2023-04-18T12:47:31.952Z,101765.53
2023-04-18T12:49:33.511Z,101766.06
2023-04-18T12:51:34.971Z,101758.38
2023-04-18T12:53:36.391Z,101763.84
2023-04-18T12:55:37.823Z,101767.19
2023-04-18T12:57:39.584Z,101748.41
2023-04-18T12:59:40.972Z,101765.31
2023-04-18T13:01:42.361Z,101754.75
2023-04-18T13:03:45.504Z,101750.69
2023-04-18T13:05:52.261Z,101753.75
2023-04-18T13:08:01.601Z,101748.59
2023-04-18T13:10:12.500Z,101743.25
2023-04-18T13:12:14.390Z,101742.75
2023-04-18T13:14:15.966Z,101733.94
2023-04-18T13:16:17.481Z,101722.25
2023-04-18T13:18:18.896Z,101738.03
2023-04-18T13:20:20.410Z,101730.56
2023-04-18T13:22:22.041Z,101729.00
2023-04-18T13:24:23.493Z,101717.06
2023-04-18T13:26:24.981Z,101694.25
2023-04-18T13:28:26.376Z,101722.44
2023-04-18T13:30:27.985Z,101712.03
2023-04-18T13:32:29.392Z,101712.44
2023-04-18T13:34:30.839Z,101708.00
2023-04-18T13:36:32.294Z,101709.25
2023-04-18T13:38:34.172Z,101710.13
2023-04-18T13:40:35.653Z,101715.34
2023-04-18T13:44:57.568Z,101710.50
2023-04-18T13:47:01.043Z,101707.56
2023-04-18T13:49:02.468Z,101700.84
2023-04-18T13:51:04.251Z,101700.31
2023-04-18T13:53:05.788Z,101704.03
2023-04-18T13:55:07.777Z,101711.91
2023-04-18T13:57:09.447Z,101701.31
2023-04-18T13:59:11.027Z,101706.19
2023-04-18T14:01:12.414Z,101679.72
2023-04-18T14:03:14.161Z,101687.28
2023-04-18T14:05:15.716Z,101691.38
2023-04-18T14:07:17.120Z,101684.97
2023-04-18T14:09:18.774Z,101684.94
2023-04-18T14:11:20.788Z,101689.19
2023-04-18T14:13:22.239Z,101686.94
2023-04-18T14:18:19.943Z,101681.19
2023-04-18T14:20:21.367Z,101681.25
2023-04-18T14:22:22.767Z,101688.53
2023-04-18T14:24:24.362Z,101694.22
2023-04-18T14:26:25.843Z,101683.94
2023-04-18T14:28:27.309Z,101683.44
2023-04-18T14:30:28.846Z,101681.34
2023-04-18T14:32:30.309Z,101678.69
2023-04-18T14:34:33.978Z,101668.97
2023-04-18T14:36:36.761Z,101677.66
2023-04-18T14:38:38.177Z,101671.13
2023-04-18T14:40:39.629Z,101673.13
2023-04-18T14:42:41.182Z,101671.91
2023-04-18T14:44:42.590Z,101652.97
2023-04-18T14:46:44.069Z,101666.88
2023-04-18T14:48:46.160Z,101670.59
2023-04-18T14:50:56.277Z,101674.47
2023-04-18T14:52:57.789Z,101662.38
2023-04-18T14:54:59.364Z,101659.03
2023-04-18T14:57:01.065Z,101650.31
2023-04-18T14:59:02.713Z,101663.53
2023-04-18T15:01:04.765Z,101664.72
2023-04-18T15:03:08.266Z,101663.75
2023-04-18T15:05:12.321Z,101658.72
2023-04-18T15:07:13.976Z,101659.03
2023-04-18T15:09:15.452Z,101662.44
2023-04-18T15:11:16.868Z,101652.84
2023-04-18T15:13:18.404Z,101659.41
2023-04-18T15:15:19.865Z,101661.41
2023-04-18T15:17:21.363Z,101636.44
2023-04-18T15:19:23.320Z,101663.41
2023-04-18T15:21:24.730Z,101655.38
2023-04-18T15:23:26.271Z,101635.44
2023-04-18T15:25:27.841Z,101652.34
2023-04-18T15:27:29.300Z,101644.16
2023-04-18T15:29:30.729Z,101657.75
2023-04-18T15:31:32.686Z,101656.91
2023-04-18T15:33:34.121Z,101656.84
2023-04-18T15:35:35.542Z,101653.88
2023-04-18T15:37:37.347Z,101658.03
2023-04-18T15:39:38.755Z,101610.81
2023-04-18T15:41:40.246Z,101642.34
2023-04-18T15:43:41.865Z,101655.56
2023-04-18T15:45:43.323Z,101648.84
2023-04-18T15:47:44.812Z,101631.25
2023-04-18T15:49:46.488Z,101654.53
2023-04-18T15:51:47.930Z,101649.03
2023-04-18T15:53:49.336Z,101642.81
2023-04-18T15:55:50.909Z,101650.88
2023-04-18T15:57:52.287Z,101649.69
2023-04-18T15:59:53.707Z,101648.69
2023-04-18T16:01:55.489Z,101642.66
2023-04-18T16:03:57.073Z,101646.00
2023-04-18T16:05:58.577Z,101645.00
2023-04-18T16:08:00.175Z,101651.69
2023-04-18T16:10:01.663Z,101637.28
2023-04-18T16:12:03.375Z,101650.19
2023-04-18T16:14:05.052Z,101646.34
2023-04-18T16:16:06.832Z,101632.75
2023-04-18T16:18:08.517Z,101634.28
2023-04-18T16:20:10.240Z,101632.88
2023-04-18T16:22:11.822Z,101631.19
2023-04-18T16:24:15.253Z,101640.63
2023-04-18T16:26:16.894Z,101643.09
2023-04-18T16:28:18.312Z,101636.88
2023-04-18T16:30:19.835Z,101625.28
2023-04-18T16:32:21.651Z,101622.75
2023-04-18T16:34:23.194Z,101622.34
2023-04-18T16:36:24.692Z,101638.13
2023-04-18T16:38:26.285Z,101641.13
2023-04-18T16:40:27.682Z,101634.44
2023-04-18T16:42:29.106Z,101641.13
2023-04-18T16:44:30.778Z,101639.06
2023-04-18T16:46:32.517Z,101639.78
2023-04-18T16:48:34.102Z,101641.59
2023-04-18T16:50:35.698Z,101620.13
2023-04-18T16:52:37.082Z,101628.78
2023-04-18T16:54:38.513Z,101636.84
2023-04-18T16:56:40.116Z,101637.81
2023-04-18T16:58:41.526Z,101635.44
2023-04-18T17:00:42.969Z,101642.59
2023-04-18T17:02:44.833Z,101639.63
2023-04-18T17:04:46.342Z,101623.13
2023-04-18T17:06:48.125Z,101639.81
2023-04-18T17:08:50.658Z,101648.00
2023-04-18T17:10:52.277Z,101649.38
2023-04-18T17:12:53.773Z,101632.50
2023-04-18T17:14:55.463Z,101623.69
2023-04-18T17:16:56.858Z,101624.97
2023-04-18T17:18:58.243Z,101641.56
2023-04-18T17:20:59.828Z,101641.84
2023-04-18T17:23:01.263Z,101637.78
2023-04-18T17:25:03.041Z,101641.25
2023-04-18T17:27:04.820Z,101634.91
2023-04-18T17:29:06.280Z,101641.47
2023-04-18T17:31:07.859Z,101641.09
2023-04-18T17:33:10.328Z,101649.63
2023-04-18T17:35:12.631Z,101643.13
2023-04-18T17:37:14.050Z,101648.22
2023-04-18T17:39:15.694Z,101627.00
2023-04-18T17:41:18.864Z,101640.22
2023-04-18T17:43:20.268Z,101640.38
2023-04-18T17:45:21.845Z,101662.59
2023-04-18T17:47:23.381Z,101663.72
2023-04-18T17:49:24.840Z,101659.06
2023-04-18T17:51:26.465Z,101665.66
2023-04-18T17:53:29.157Z,101679.25
2023-04-18T17:55:31.616Z,101658.00
2023-04-18T17:57:33.426Z,101672.16
2023-04-18T17:59:34.834Z,101674.53
2023-04-18T18:01:36.277Z,101677.91
2023-04-18T18:03:38.426Z,101658.13
2023-04-18T18:05:40.988Z,101667.69
2023-04-18T18:07:42.386Z,101663.25
2023-04-18T18:09:44.418Z,101665.31
2023-04-18T18:11:45.839Z,101658.69
2023-04-18T18:13:47.388Z,101667.88
2023-04-18T18:15:49.078Z,101651.69
2023-04-18T18:17:51.403Z,101663.19
2023-04-18T18:19:52.830Z,101656.19
2023-04-18T18:21:54.854Z,101667.22
2023-04-18T18:23:56.248Z,101669.94
2023-04-18T18:25:57.715Z,101653.91
2023-04-18T18:27:59.304Z,101663.50
2023-04-18T18:30:00.711Z,101647.06
2023-04-18T18:32:02.128Z,101662.41
2023-04-18T18:34:04.126Z,101670.66
2023-04-18T18:36:05.777Z,101673.34
2023-04-18T18:38:07.206Z,101655.41
2023-04-18T18:40:09.278Z,101666.34
2023-04-18T18:42:10.702Z,101646.69
2023-04-18T18:44:12.131Z,101671.41
2023-04-18T18:46:14.860Z,101656.25
2023-04-18T18:48:16.287Z,101649.09
2023-04-18T18:50:17.839Z,101654.03
2023-04-18T18:52:19.405Z,101655.97
2023-04-18T18:54:20.809Z,101645.31
2023-04-18T18:56:22.227Z,101655.84
2023-04-18T18:58:23.922Z,101662.56
2023-04-18T19:00:25.364Z,101652.88
2023-04-18T19:02:26.862Z,101645.06
2023-04-18T19:04:28.913Z,101656.09
2023-04-18T19:06:30.379Z,101655.69
2023-04-18T19:08:31.794Z,101660.47
2023-04-18T19:10:33.584Z,101647.03
2023-04-18T19:12:35.034Z,101653.03
2023-04-18T19:14:36.438Z,101657.25
2023-04-18T19:16:38.388Z,101655.97
2023-04-18T19:18:39.856Z,101651.78
2023-04-18T19:20:41.342Z,101645.44
2023-04-18T19:22:42.875Z,101633.53
2023-04-18T19:24:44.328Z,101650.22
2023-04-18T19:26:45.734Z,101643.50
2023-04-18T19:28:47.295Z,101648.53
2023-04-18T19:30:49.496Z,101646.31
2023-04-18T19:32:50.995Z,101648.00
2023-04-18T19:34:52.639Z,101640.13
2023-04-18T19:36:54.062Z,101629.03
2023-04-18T19:38:55.452Z,101640.28
2023-04-18T19:40:57.087Z,101640.13
2023-04-18T19:42:58.473Z,101636.78
2023-04-18T19:44:59.877Z,101635.34
2023-04-18T19:47:01.477Z,101617.72
2023-04-18T19:49:02.942Z,101645.31
2023-04-18T19:51:04.347Z,101627.81
2023-04-18T19:53:06.061Z,101633.25
2023-04-18T19:55:07.911Z,101628.47
2023-04-18T19:57:09.527Z,101653.16
2023-04-18T19:59:11.188Z,101634.22
2023-04-18T20:01:14.128Z,101627.09
2023-04-18T20:03:15.718Z,101637.34
2023-04-18T20:05:17.707Z,101619.66
2023-04-18T20:07:19.667Z,101633.00
2023-04-18T20:09:21.181Z,101631.00
2023-04-18T20:11:22.942Z,101622.63
2023-04-18T20:13:24.351Z,101615.59
2023-04-18T20:15:25.847Z,101632.16
2023-04-18T20:17:27.587Z,101618.41
2023-04-18T20:19:28.998Z,101611.81
2023-04-18T20:21:30.471Z,101601.59
2023-04-18T20:23:31.952Z,101589.28
2023-04-18T20:25:33.956Z,101608.03
2023-04-18T20:27:35.565Z,101606.91
2023-04-18T20:29:37.042Z,101592.91
2023-04-18T20:31:38.479Z,101614.31
2023-04-18T20:33:39.980Z,101607.16
2023-04-18T20:35:41.648Z,101587.53
2023-04-18T20:37:43.122Z,101604.66
2023-04-18T20:39:44.528Z,101601.84
2023-04-18T20:41:49.797Z,101587.13
2023-04-18T20:43:51.220Z,101601.44
2023-04-18T20:45:52.973Z,101589.78
2023-04-18T20:47:54.711Z,101590.31
2023-04-18T20:49:56.140Z,101571.53
2023-04-18T20:51:57.533Z,101572.06
2023-04-18T20:53:59.213Z,101588.75
2023-04-18T20:56:02.752Z,101610.78
2023-04-18T20:58:04.154Z,101595.22
2023-04-18T21:00:06.909Z,101580.50
2023-04-18T21:02:08.501Z,101590.72
2023-04-18T21:04:10.162Z,101586.28
2023-04-18T21:06:11.836Z,101580.31
2023-04-18T21:08:14.263Z,101588.72
2023-04-18T21:10:15.681Z,101581.03
2023-04-18T21:12:17.294Z,101587.06
2023-04-18T21:14:18.710Z,101581.28
2023-04-18T21:16:20.154Z,101576.81
2023-04-18T21:18:21.750Z,101572.53
2023-04-18T21:20:23.244Z,101580.28
2023-04-18T21:22:24.727Z,101570.03
2023-04-18T21:24:26.276Z,101565.69
2023-04-18T21:26:27.728Z,101568.91
2023-04-18T21:28:29.124Z,101573.31
2023-04-18T21:30:30.868Z,101556.28
2023-04-18T21:32:32.332Z,101569.09
2023-04-18T21:34:33.721Z,101565.88
2023-04-18T21:36:35.608Z,101566.00
2023-04-18T21:38:37.042Z,101570.16
2023-04-18T21:40:38.447Z,101556.59
2023-04-18T21:42:40.032Z,101563.34
2023-04-18T21:44:41.437Z,101571.75
2023-04-18T21:46:42.833Z,101552.38
2023-04-18T21:48:45.908Z,101569.91
2023-04-18T21:50:53.914Z,101563.00
2023-04-18T21:52:55.310Z,101556.63
2023-04-18T21:54:56.852Z,101547.44
2023-04-18T21:56:58.246Z,101556.16
2023-04-18T21:58:59.776Z,101567.84
2023-04-18T22:01:02.289Z,101556.38
2023-04-18T22:03:03.876Z,101557.44
2023-04-18T22:05:05.830Z,101547.63
2023-04-18T22:07:07.483Z,101549.13
2023-04-18T22:09:08.935Z,101550.66
2023-04-18T22:11:10.345Z,101557.69
2023-04-18T22:13:12.171Z,101549.16
2023-04-18T22:15:13.587Z,101548.53
2023-04-18T22:17:15.087Z,101562.59
2023-04-18T22:19:17.253Z,101543.75
2023-04-18T22:21:18.690Z,101545.47
2023-04-18T22:23:20.094Z,101559.81
2023-04-18T22:25:21.907Z,101548.56
2023-04-18T22:27:23.304Z,101542.31
2023-04-18T22:29:24.729Z,101540.94
2023-04-18T22:31:26.361Z,101529.50
2023-04-18T22:33:28.101Z,101534.97
2023-04-18T22:35:29.497Z,101540.28
2023-04-18T22:37:31.224Z,101524.25
2023-04-18T22:39:32.633Z,101533.38
2023-04-18T22:41:34.039Z,101523.56
2023-04-18T22:43:35.697Z,101526.22
2023-04-18T22:45:37.103Z,101527.38
2023-04-18T22:47:38.646Z,101527.88
2023-04-18T22:49:40.222Z,101520.31
2023-04-18T22:51:41.602Z,101526.56
2023-04-18T22:53:42.993Z,101519.97
2023-04-18T22:55:45.163Z,101517.03
2023-04-18T22:57:46.579Z,101509.22
2023-04-18T22:59:48.005Z,101514.50
2023-04-18T23:01:49.716Z,101499.84
2023-04-18T23:03:51.352Z,101510.44
2023-04-18T23:05:52.895Z,101498.22
2023-04-18T23:07:54.482Z,101481.91
2023-04-18T23:09:55.943Z,101490.59
2023-04-18T23:11:57.369Z,101490.19
2023-04-18T23:13:59.417Z,101499.28
2023-04-18T23:16:00.865Z,101503.16
2023-04-18T23:18:02.393Z,101492.09
2023-04-18T23:20:05.051Z,101472.13
2023-04-18T23:22:06.521Z,101478.28